Bloomington, Texas
Current Conditions -  °F | °C
As of 6:55 AM on Tuesday 21 Oct 2014 (Local Time) from KPKV Reporting Station
Clear Clear  
Wind Chill: 66°   Ceiling: Unl
Heat Index: 66°   Visibility: 10mi
Dew Point: 62°   Wind: 9mph
Humidity: 87%   Direction: 50°NE
Pressure: 30"   Gusts: NA
Location:  28.65°N, 96.89°W
Report Text: KPKV 211155Z AUTO 05008KT 10SM CLR 19/17 A3000 RMK AO2 T01890167 10215 20189
Loading
Personal Weather Stations






























Interactive Weather Map
Tropical Storm Tracking
New forecast layout! Learn more

10-Day Weather Forecast

Advertisements
Track Severe Weather on mobile